sensor_id;sensor_type;location;lat;lon;timestamp;pressure;altitude;pressure_sealevel;temperature;humidity
67345;BME280;54230;52.402;6.276;2023-11-22T00:00:00;102809.99999999999;;;6.9;77.7
67345;BME280;54230;52.402;6.276;2023-11-22T00:05:00;102800.0;;;6.8;78.0
67345;BME280;54230;52.402;6.276;2023-11-22T00:10:00;102800.0;;;6.7;78.3
67345;BME280;54230;52.402;6.276;2023-11-22T00:15:00;102809.99999999999;;;6.6;78.4
67345;BME280;54230;52.402;6.276;2023-11-22T00:20:00;102820.0;;;6.6;78.2
67345;BME280;54230;52.402;6.276;2023-11-22T00:25:00;102820.0;;;6.6;78.3
67345;BME280;54230;52.402;6.276;2023-11-22T00:30:00;102820.0;;;6.5;78.3
67345;BME280;54230;52.402;6.276;2023-11-22T00:35:00;102820.0;;;6.4;77.7
67345;BME280;54230;52.402;6.276;2023-11-22T00:40:00;102820.0;;;6.3;76.7
67345;BME280;54230;52.402;6.276;2023-11-22T00:45:00;102820.0;;;6.2;76.2
67345;BME280;54230;52.402;6.276;2023-11-22T00:50:00;102840.00000000001;;;6.1;76.8
67345;BME280;54230;52.402;6.276;2023-11-22T00:55:00;102840.00000000001;;;6.1;77.6
67345;BME280;54230;52.402;6.276;2023-11-22T01:00:00;102840.00000000001;;;6.0;78.0
67345;BME280;54230;52.402;6.276;2023-11-22T01:05:00;102870.0;;;6.0;78.3
67345;BME280;54230;52.402;6.276;2023-11-22T01:10:00;102870.0;;;5.9;78.3
67345;BME280;54230;52.402;6.276;2023-11-22T01:15:00;102880.0;;;5.9;78.3
67345;BME280;54230;52.402;6.276;2023-11-22T01:20:00;102890.00000000001;;;5.9;78.4
67345;BME280;54230;52.402;6.276;2023-11-22T01:25:00;102909.99999999999;;;5.8;78.3
67345;BME280;54230;52.402;6.276;2023-11-22T01:30:00;102920.0;;;5.8;78.7
67345;BME280;54230;52.402;6.276;2023-11-22T01:35:00;102920.0;;;5.8;78.7
67345;BME280;54230;52.402;6.276;2023-11-22T01:40:00;102909.99999999999;;;5.7;78.3
67345;BME280;54230;52.402;6.276;2023-11-22T01:45:00;102909.99999999999;;;5.6;78.2
67345;BME280;54230;52.402;6.276;2023-11-22T01:50:00;102909.99999999999;;;5.5;78.1
67345;BME280;54230;52.402;6.276;2023-11-22T01:55:02;102900.0;;;5.4;78.2
67345;BME280;54230;52.402;6.276;2023-11-22T02:00:00;102890.00000000001;;;5.4;78.0
67345;BME280;54230;52.402;6.276;2023-11-22T02:05:00;102890.00000000001;;;5.3;77.8
67345;BME280;54230;52.402;6.276;2023-11-22T02:10:00;102890.00000000001;;;5.3;78.0
67345;BME280;54230;52.402;6.276;2023-11-22T02:15:00;102890.00000000001;;;5.3;78.1
67345;BME280;54230;52.402;6.276;2023-11-22T02:20:00;102909.99999999999;;;5.4;78.0
67345;BME280;54230;52.402;6.276;2023-11-22T02:25:00;102909.99999999999;;;5.4;77.6
67345;BME280;54230;52.402;6.276;2023-11-22T02:30:01;102909.99999999999;;;5.3;77.2
67345;BME280;54230;52.402;6.276;2023-11-22T02:35:00;102900.0;;;5.2;77.1
67345;BME280;54230;52.402;6.276;2023-11-22T02:40:05;102900.0;;;5.0;77.2
67345;BME280;54230;52.402;6.276;2023-11-22T02:45:00;102900.0;;;5.0;77.9
67345;BME280;54230;52.402;6.276;2023-11-22T02:50:01;102890.00000000001;;;5.0;78.0
67345;BME280;54230;52.402;6.276;2023-11-22T02:55:00;102890.00000000001;;;4.9;77.5
67345;BME280;54230;52.402;6.276;2023-11-22T03:00:00;102880.0;;;4.8;77.3
67345;BME280;54230;52.402;6.276;2023-11-22T03:05:00;102890.00000000001;;;4.9;77.6
67345;BME280;54230;52.402;6.276;2023-11-22T03:10:00;102900.0;;;4.9;77.8
67345;BME280;54230;52.402;6.276;2023-11-22T03:15:00;102900.0;;;4.9;77.8
67345;BME280;54230;52.402;6.276;2023-11-22T03:20:00;102900.0;;;4.9;77.9
67345;BME280;54230;52.402;6.276;2023-11-22T03:25:01;102909.99999999999;;;4.9;78.4
67345;BME280;54230;52.402;6.276;2023-11-22T03:30:00;102930.0;;;4.9;78.4
67345;BME280;54230;52.402;6.276;2023-11-22T03:35:00;102950.0;;;5.0;78.2
67345;BME280;54230;52.402;6.276;2023-11-22T03:40:00;102959.99999999999;;;4.9;77.5
67345;BME280;54230;52.402;6.276;2023-11-22T03:45:00;102970.0;;;4.9;77.3
67345;BME280;54230;52.402;6.276;2023-11-22T03:50:00;102980.0;;;4.7;77.5
67345;BME280;54230;52.402;6.276;2023-11-22T03:55:00;102980.0;;;4.8;77.6
67345;BME280;54230;52.402;6.276;2023-11-22T04:00:00;102990.00000000001;;;4.7;77.6
67345;BME280;54230;52.402;6.276;2023-11-22T04:05:00;102990.00000000001;;;4.7;77.5
67345;BME280;54230;52.402;6.276;2023-11-22T04:10:00;102990.00000000001;;;4.6;77.4
67345;BME280;54230;52.402;6.276;2023-11-22T04:15:00;102980.0;;;4.4;77.0
67345;BME280;54230;52.402;6.276;2023-11-22T04:20:00;102980.0;;;4.3;76.8
67345;BME280;54230;52.402;6.276;2023-11-22T04:25:00;102980.0;;;4.3;76.2
67345;BME280;54230;52.402;6.276;2023-11-22T04:30:00;102990.00000000001;;;4.3;75.6
67345;BME280;54230;52.402;6.276;2023-11-22T04:35:00;102990.00000000001;;;4.3;75.7
67345;BME280;54230;52.402;6.276;2023-11-22T04:40:00;102980.0;;;4.2;75.6
67345;BME280;54230;52.402;6.276;2023-11-22T04:45:00;102990.00000000001;;;4.1;75.8
67345;BME280;54230;52.402;6.276;2023-11-22T04:50:00;103000.0;;;4.1;75.9
67345;BME280;54230;52.402;6.276;2023-11-22T04:55:00;103000.0;;;4.0;75.2
67345;BME280;54230;52.402;6.276;2023-11-22T05:00:00;103000.0;;;3.9;74.8
67345;BME280;54230;52.402;6.276;2023-11-22T05:05:00;103000.0;;;3.8;74.5
67345;BME280;54230;52.402;6.276;2023-11-22T05:10:00;103000.0;;;3.8;74.0
67345;BME280;54230;52.402;6.276;2023-11-22T05:15:00;103000.0;;;3.8;73.3
67345;BME280;54230;52.402;6.276;2023-11-22T05:20:00;103000.0;;;3.7;73.7
67345;BME280;54230;52.402;6.276;2023-11-22T05:25:00;103000.0;;;3.7;74.4
67345;BME280;54230;52.402;6.276;2023-11-22T05:30:00;103009.99999999999;;;3.8;74.4
67345;BME280;54230;52.402;6.276;2023-11-22T05:35:00;103000.0;;;3.9;73.8
67345;BME280;54230;52.402;6.276;2023-11-22T05:40:00;103000.0;;;4.0;73.7
67345;BME280;54230;52.402;6.276;2023-11-22T05:45:00;102990.00000000001;;;4.0;73.6
67345;BME280;54230;52.402;6.276;2023-11-22T05:50:00;102990.00000000001;;;4.1;73.0
67345;BME280;54230;52.402;6.276;2023-11-22T05:55:00;103009.99999999999;;;4.1;73.1
67345;BME280;54230;52.402;6.276;2023-11-22T06:00:00;103020.0;;;4.1;73.7
67345;BME280;54230;52.402;6.276;2023-11-22T06:05:00;103020.0;;;4.1;73.7
67345;BME280;54230;52.402;6.276;2023-11-22T06:10:00;103030.0;;;4.2;74.2
67345;BME280;54230;52.402;6.276;2023-11-22T06:15:00;103030.0;;;4.3;74.1
67345;BME280;54230;52.402;6.276;2023-11-22T06:20:00;103030.0;;;4.3;73.8
67345;BME280;54230;52.402;6.276;2023-11-22T06:25:00;103030.0;;;4.3;73.4
67345;BME280;54230;52.402;6.276;2023-11-22T06:30:00;103040.00000000001;;;4.6;73.8
67345;BME280;54230;52.402;6.276;2023-11-22T06:35:00;103050.0;;;4.7;75.1
67345;BME280;54230;52.402;6.276;2023-11-22T06:40:01;103059.99999999999;;;4.6;74.6
67345;BME280;54230;52.402;6.276;2023-11-22T06:45:00;103070.0;;;4.5;74.3
67345;BME280;54230;52.402;6.276;2023-11-22T06:50:00;103080.0;;;4.7;74.5
67345;BME280;54230;52.402;6.276;2023-11-22T06:55:00;103080.0;;;4.8;75.5
67345;BME280;54230;52.402;6.276;2023-11-22T07:00:00;103059.99999999999;;;4.8;75.0
67345;BME280;54230;52.402;6.276;2023-11-22T07:05:00;103050.0;;;4.6;74.4
67345;BME280;54230;52.402;6.276;2023-11-22T07:10:00;103050.0;;;4.6;74.3
67345;BME280;54230;52.402;6.276;2023-11-22T07:15:01;103040.00000000001;;;4.6;74.3
67345;BME280;54230;52.402;6.276;2023-11-22T07:20:00;103059.99999999999;;;4.5;74.8
67345;BME280;54230;52.402;6.276;2023-11-22T07:25:00;103050.0;;;4.9;75.9
67345;BME280;54230;52.402;6.276;2023-11-22T07:30:00;103050.0;;;4.8;75.6
67345;BME280;54230;52.402;6.276;2023-11-22T07:35:00;103050.0;;;5.0;75.4
67345;BME280;54230;52.402;6.276;2023-11-22T07:40:00;103050.0;;;5.4;76.6
67345;BME280;54230;52.402;6.276;2023-11-22T07:45:00;103050.0;;;5.5;78.0
67345;BME280;54230;52.402;6.276;2023-11-22T07:50:00;103050.0;;;5.6;78.5
67345;BME280;54230;52.402;6.276;2023-11-22T07:55:00;103050.0;;;5.4;77.0
67345;BME280;54230;52.402;6.276;2023-11-22T08:00:01;103050.0;;;5.2;75.9
67345;BME280;54230;52.402;6.276;2023-11-22T08:05:00;103050.0;;;5.2;75.4
67345;BME280;54230;52.402;6.276;2023-11-22T08:10:00;103070.0;;;5.3;75.1
67345;BME280;54230;52.402;6.276;2023-11-22T08:15:00;103090.00000000001;;;5.5;75.2
67345;BME280;54230;52.402;6.276;2023-11-22T08:20:00;103109.99999999999;;;5.6;76.1
67345;BME280;54230;52.402;6.276;2023-11-22T08:25:00;103109.99999999999;;;5.8;76.4
67345;BME280;54230;52.402;6.276;2023-11-22T08:30:00;103109.99999999999;;;5.8;76.3
67345;BME280;54230;52.402;6.276;2023-11-22T08:35:00;103109.99999999999;;;6.0;76.7
67345;BME280;54230;52.402;6.276;2023-11-22T08:40:00;103090.00000000001;;;6.1;77.1
67345;BME280;54230;52.402;6.276;2023-11-22T08:45:00;103109.99999999999;;;6.3;77.6
67345;BME280;54230;52.402;6.276;2023-11-22T08:50:00;103120.0;;;6.3;77.1
67345;BME280;54230;52.402;6.276;2023-11-22T08:55:00;103120.0;;;6.3;77.2
67345;BME280;54230;52.402;6.276;2023-11-22T09:00:00;103120.0;;;6.5;77.6
67345;BME280;54230;52.402;6.276;2023-11-22T09:05:00;103109.99999999999;;;6.6;78.1
67345;BME280;54230;52.402;6.276;2023-11-22T09:10:00;103100.0;;;6.7;78.5
67345;BME280;54230;52.402;6.276;2023-11-22T09:15:00;103109.99999999999;;;6.9;78.7
67345;BME280;54230;52.402;6.276;2023-11-22T09:20:00;103109.99999999999;;;6.9;78.5
67345;BME280;54230;52.402;6.276;2023-11-22T09:25:00;103120.0;;;7.1;78.3
67345;BME280;54230;52.402;6.276;2023-11-22T09:30:00;103109.99999999999;;;7.3;78.5
67345;BME280;54230;52.402;6.276;2023-11-22T09:35:00;103100.0;;;7.3;79.1
67345;BME280;54230;52.402;6.276;2023-11-22T09:40:00;103100.0;;;7.2;78.7
67345;BME280;54230;52.402;6.276;2023-11-22T09:45:00;103100.0;;;7.2;78.7
67345;BME280;54230;52.402;6.276;2023-11-22T09:50:01;103109.99999999999;;;7.5;78.6
67345;BME280;54230;52.402;6.276;2023-11-22T09:55:02;103109.99999999999;;;7.4;78.7
67345;BME280;54230;52.402;6.276;2023-11-22T10:00:01;103109.99999999999;;;7.3;78.8
67345;BME280;54230;52.402;6.276;2023-11-22T10:05:00;103120.0;;;7.2;78.3
67345;BME280;54230;52.402;6.276;2023-11-22T10:10:00;103120.0;;;7.2;78.4
67345;BME280;54230;52.402;6.276;2023-11-22T10:15:11;103109.99999999999;;;7.4;78.1
67345;BME280;54230;52.402;6.276;2023-11-22T10:20:01;103109.99999999999;;;7.2;77.9
67345;BME280;54230;52.402;6.276;2023-11-22T10:25:00;103109.99999999999;;;7.2;78.2
67345;BME280;54230;52.402;6.276;2023-11-22T10:30:00;103090.00000000001;;;7.3;78.5
67345;BME280;54230;52.402;6.276;2023-11-22T10:35:00;103090.00000000001;;;7.3;78.6
67345;BME280;54230;52.402;6.276;2023-11-22T10:40:00;103070.0;;;7.3;78.4
67345;BME280;54230;52.402;6.276;2023-11-22T10:45:00;103070.0;;;7.4;78.3
67345;BME280;54230;52.402;6.276;2023-11-22T10:50:00;103070.0;;;7.3;78.4
67345;BME280;54230;52.402;6.276;2023-11-22T10:55:02;103050.0;;;7.2;78.2
67345;BME280;54230;52.402;6.276;2023-11-22T11:00:03;103059.99999999999;;;7.1;78.1
67345;BME280;54230;52.402;6.276;2023-11-22T11:05:03;103070.0;;;7.0;77.7
67345;BME280;54230;52.402;6.276;2023-11-22T11:10:01;103059.99999999999;;;7.2;77.8
67345;BME280;54230;52.402;6.276;2023-11-22T11:15:01;103020.0;;;7.3;78.0
67345;BME280;54230;52.402;6.276;2023-11-22T11:20:00;102990.00000000001;;;7.5;77.7
67345;BME280;54230;52.402;6.276;2023-11-22T11:25:02;102959.99999999999;;;7.4;77.4
67345;BME280;54230;52.402;6.276;2023-11-22T11:30:00;102950.0;;;7.4;77.0
67345;BME280;54230;52.402;6.276;2023-11-22T11:35:01;102940.00000000001;;;7.4;76.3
67345;BME280;54230;52.402;6.276;2023-11-22T11:40:01;102930.0;;;7.7;75.8
67345;BME280;54230;52.402;6.276;2023-11-22T11:45:03;102920.0;;;7.6;75.6
67345;BME280;54230;52.402;6.276;2023-11-22T11:50:00;102940.00000000001;;;7.5;75.3
67345;BME280;54230;52.402;6.276;2023-11-22T11:55:00;102940.00000000001;;;7.7;74.5
67345;BME280;54230;52.402;6.276;2023-11-22T12:00:00;102920.0;;;7.5;74.1
67345;BME280;54230;52.402;6.276;2023-11-22T12:05:00;102909.99999999999;;;7.6;74.0
67345;BME280;54230;52.402;6.276;2023-11-22T12:10:00;102920.0;;;7.9;73.4
67345;BME280;54230;52.402;6.276;2023-11-22T12:15:00;102920.0;;;7.8;72.7
67345;BME280;54230;52.402;6.276;2023-11-22T12:20:11;102900.0;;;7.9;72.0
67345;BME280;54230;52.402;6.276;2023-11-22T12:25:00;102920.0;;;7.9;71.3
67345;BME280;54230;52.402;6.276;2023-11-22T12:30:00;102909.99999999999;;;8.0;70.7
67345;BME280;54230;52.402;6.276;2023-11-22T12:35:00;102920.0;;;8.3;70.3
67345;BME280;54230;52.402;6.276;2023-11-22T12:40:09;102880.0;;;8.4;69.7
67345;BME280;54230;52.402;6.276;2023-11-22T12:45:00;102880.0;;;8.4;68.7
67345;BME280;54230;52.402;6.276;2023-11-22T12:50:00;102900.0;;;8.3;68.4
67345;BME280;54230;52.402;6.276;2023-11-22T12:55:00;102880.0;;;8.3;67.9
67345;BME280;54230;52.402;6.276;2023-11-22T13:00:00;102870.0;;;8.1;67.6
67345;BME280;54230;52.402;6.276;2023-11-22T13:05:00;102870.0;;;8.1;67.6
67345;BME280;54230;52.402;6.276;2023-11-22T13:10:00;102870.0;;;8.3;67.7
67345;BME280;54230;52.402;6.276;2023-11-22T13:15:00;102850.0;;;8.3;67.5
67345;BME280;54230;52.402;6.276;2023-11-22T13:20:00;102830.0;;;8.3;67.8
67345;BME280;54230;52.402;6.276;2023-11-22T13:25:00;102820.0;;;8.4;67.6
67345;BME280;54230;52.402;6.276;2023-11-22T13:30:00;102820.0;;;8.4;67.6
67345;BME280;54230;52.402;6.276;2023-11-22T13:35:00;102809.99999999999;;;8.4;67.2
67345;BME280;54230;52.402;6.276;2023-11-22T13:40:00;102809.99999999999;;;8.3;67.3
67345;BME280;54230;52.402;6.276;2023-11-22T13:45:00;102820.0;;;8.2;67.3
67345;BME280;54230;52.402;6.276;2023-11-22T13:50:00;102809.99999999999;;;8.2;67.4
67345;BME280;54230;52.402;6.276;2023-11-22T13:55:00;102809.99999999999;;;8.2;67.3
67345;BME280;54230;52.402;6.276;2023-11-22T14:00:01;102790.00000000001;;;8.2;67.3
67345;BME280;54230;52.402;6.276;2023-11-22T14:05:00;102800.0;;;8.2;67.2
67345;BME280;54230;52.402;6.276;2023-11-22T14:10:00;102809.99999999999;;;8.2;66.9
67345;BME280;54230;52.402;6.276;2023-11-22T14:15:01;102800.0;;;8.2;67.0
67345;BME280;54230;52.402;6.276;2023-11-22T14:20:00;102790.00000000001;;;8.3;67.1
67345;BME280;54230;52.402;6.276;2023-11-22T14:25:00;102790.00000000001;;;8.2;67.2
67345;BME280;54230;52.402;6.276;2023-11-22T14:30:00;102780.0;;;8.1;67.6
67345;BME280;54230;52.402;6.276;2023-11-22T14:35:00;102780.0;;;7.9;68.3
67345;BME280;54230;52.402;6.276;2023-11-22T14:40:00;102790.00000000001;;;8.1;68.9
67345;BME280;54230;52.402;6.276;2023-11-22T14:45:00;102790.00000000001;;;8.0;69.0
67345;BME280;54230;52.402;6.276;2023-11-22T14:50:00;102759.99999999999;;;8.0;69.4
67345;BME280;54230;52.402;6.276;2023-11-22T14:55:00;102780.0;;;8.1;69.3
67345;BME280;54230;52.402;6.276;2023-11-22T15:00:00;102780.0;;;8.0;69.5
67345;BME280;54230;52.402;6.276;2023-11-22T15:05:00;102750.0;;;7.9;69.4
67345;BME280;54230;52.402;6.276;2023-11-22T15:10:00;102770.0;;;8.0;69.9
67345;BME280;54230;52.402;6.276;2023-11-22T15:15:00;102770.0;;;7.9;69.9
67345;BME280;54230;52.402;6.276;2023-11-22T15:20:00;102750.0;;;7.8;69.9
67345;BME280;54230;52.402;6.276;2023-11-22T15:25:00;102750.0;;;7.8;70.1
67345;BME280;54230;52.402;6.276;2023-11-22T15:30:00;102750.0;;;7.8;70.3
67345;BME280;54230;52.402;6.276;2023-11-22T15:35:00;102759.99999999999;;;7.8;70.4
67345;BME280;54230;52.402;6.276;2023-11-22T15:40:00;102759.99999999999;;;7.9;70.3
67345;BME280;54230;52.402;6.276;2023-11-22T15:45:00;102750.0;;;7.8;70.5
67345;BME280;54230;52.402;6.276;2023-11-22T15:50:00;102750.0;;;7.8;70.5
67345;BME280;54230;52.402;6.276;2023-11-22T15:55:00;102740.00000000001;;;7.8;70.8
67345;BME280;54230;52.402;6.276;2023-11-22T16:00:00;102720.0;;;7.7;70.9
67345;BME280;54230;52.402;6.276;2023-11-22T16:05:00;102700.0;;;7.7;71.3
67345;BME280;54230;52.402;6.276;2023-11-22T16:10:00;102700.0;;;7.8;71.1
67345;BME280;54230;52.402;6.276;2023-11-22T16:15:00;102680.0;;;7.8;71.5
67345;BME280;54230;52.402;6.276;2023-11-22T16:20:00;102680.0;;;7.8;71.6
67345;BME280;54230;52.402;6.276;2023-11-22T16:25:00;102659.99999999999;;;7.8;72.3
67345;BME280;54230;52.402;6.276;2023-11-22T16:30:01;102659.99999999999;;;7.8;72.2
67345;BME280;54230;52.402;6.276;2023-11-22T16:35:00;102640.00000000001;;;7.9;72.3
67345;BME280;54230;52.402;6.276;2023-11-22T16:40:00;102650.0;;;7.9;72.4
67345;BME280;54230;52.402;6.276;2023-11-22T16:45:00;102659.99999999999;;;7.8;72.5
67345;BME280;54230;52.402;6.276;2023-11-22T16:50:00;102650.0;;;8.0;72.5
67345;BME280;54230;52.402;6.276;2023-11-22T16:55:01;102650.0;;;8.8;72.5
67345;BME280;54230;52.402;6.276;2023-11-22T17:00:00;102640.00000000001;;;8.9;72.6
67345;BME280;54230;52.402;6.276;2023-11-22T17:05:00;102650.0;;;8.9;72.5
67345;BME280;54230;52.402;6.276;2023-11-22T17:10:00;102640.00000000001;;;9.3;72.3
67345;BME280;54230;52.402;6.276;2023-11-22T17:15:00;102620.0;;;9.2;72.1
67345;BME280;54230;52.402;6.276;2023-11-22T17:20:00;102600.0;;;9.0;71.8
67345;BME280;54230;52.402;6.276;2023-11-22T17:25:00;102609.99999999999;;;8.8;71.9
67345;BME280;54230;52.402;6.276;2023-11-22T17:30:00;102630.0;;;8.6;71.5
67345;BME280;54230;52.402;6.276;2023-11-22T17:35:00;102620.0;;;8.6;71.7
67345;BME280;54230;52.402;6.276;2023-11-22T17:40:00;102620.0;;;8.4;71.8
67345;BME280;54230;52.402;6.276;2023-11-22T17:45:00;102620.0;;;8.1;72.0
67345;BME280;54230;52.402;6.276;2023-11-22T17:50:00;102609.99999999999;;;8.0;72.1
67345;BME280;54230;52.402;6.276;2023-11-22T17:55:00;102600.0;;;8.0;72.1
67345;BME280;54230;52.402;6.276;2023-11-22T18:00:00;102590.00000000001;;;7.9;72.1
67345;BME280;54230;52.402;6.276;2023-11-22T18:05:00;102570.0;;;7.9;72.4
67345;BME280;54230;52.402;6.276;2023-11-22T18:10:00;102580.0;;;8.0;72.3
67345;BME280;54230;52.402;6.276;2023-11-22T18:15:00;102590.00000000001;;;8.0;72.5
67345;BME280;54230;52.402;6.276;2023-11-22T18:20:00;102590.00000000001;;;8.2;72.5
67345;BME280;54230;52.402;6.276;2023-11-22T18:25:00;102570.0;;;8.2;72.1
67345;BME280;54230;52.402;6.276;2023-11-22T18:30:00;102559.99999999999;;;8.1;72.1
67345;BME280;54230;52.402;6.276;2023-11-22T18:35:00;102559.99999999999;;;8.1;71.9
67345;BME280;54230;52.402;6.276;2023-11-22T18:40:00;102550.0;;;8.0;71.7
67345;BME280;54230;52.402;6.276;2023-11-22T18:45:00;102550.0;;;8.1;71.9
67345;BME280;54230;52.402;6.276;2023-11-22T18:50:00;102550.0;;;8.1;71.8
67345;BME280;54230;52.402;6.276;2023-11-22T18:55:00;102540.00000000001;;;8.1;71.6
67345;BME280;54230;52.402;6.276;2023-11-22T19:00:00;102530.0;;;8.1;71.7
67345;BME280;54230;52.402;6.276;2023-11-22T19:05:00;102520.0;;;8.2;72.0
67345;BME280;54230;52.402;6.276;2023-11-22T19:10:00;102520.0;;;8.1;71.5
67345;BME280;54230;52.402;6.276;2023-11-22T19:15:00;102490.00000000001;;;8.1;71.7
67345;BME280;54230;52.402;6.276;2023-11-22T19:20:00;102480.0;;;8.2;72.0
67345;BME280;54230;52.402;6.276;2023-11-22T19:25:00;102490.00000000001;;;8.2;71.9
67345;BME280;54230;52.402;6.276;2023-11-22T19:30:00;102480.0;;;8.2;72.0
67345;BME280;54230;52.402;6.276;2023-11-22T19:35:00;102470.0;;;8.2;72.0
67345;BME280;54230;52.402;6.276;2023-11-22T19:40:00;102459.99999999999;;;8.3;72.3
67345;BME280;54230;52.402;6.276;2023-11-22T19:45:00;102459.99999999999;;;8.3;72.3
67345;BME280;54230;52.402;6.276;2023-11-22T19:50:00;102459.99999999999;;;8.3;72.4
67345;BME280;54230;52.402;6.276;2023-11-22T19:55:00;102459.99999999999;;;8.3;72.7
67345;BME280;54230;52.402;6.276;2023-11-22T20:00:00;102450.0;;;8.4;73.0
67345;BME280;54230;52.402;6.276;2023-11-22T20:05:00;102440.00000000001;;;8.4;73.1
67345;BME280;54230;52.402;6.276;2023-11-22T20:10:00;102450.0;;;8.4;73.0
67345;BME280;54230;52.402;6.276;2023-11-22T20:15:00;102440.00000000001;;;8.4;73.2
67345;BME280;54230;52.402;6.276;2023-11-22T20:20:00;102440.00000000001;;;8.4;73.1
67345;BME280;54230;52.402;6.276;2023-11-22T20:25:00;102450.0;;;8.5;73.3
67345;BME280;54230;52.402;6.276;2023-11-22T20:30:00;102450.0;;;8.5;73.4
67345;BME280;54230;52.402;6.276;2023-11-22T20:35:00;102459.99999999999;;;8.6;73.7
67345;BME280;54230;52.402;6.276;2023-11-22T20:40:00;102470.0;;;8.7;73.7
67345;BME280;54230;52.402;6.276;2023-11-22T20:45:00;102459.99999999999;;;9.0;73.3
67345;BME280;54230;52.402;6.276;2023-11-22T20:50:00;102450.0;;;9.3;73.2
67345;BME280;54230;52.402;6.276;2023-11-22T20:55:00;102450.0;;;10.3;72.9
67345;BME280;54230;52.402;6.276;2023-11-22T21:00:00;102459.99999999999;;;10.1;72.5
67345;BME280;54230;52.402;6.276;2023-11-22T21:05:00;102450.0;;;10.1;72.5
67345;BME280;54230;52.402;6.276;2023-11-22T21:10:00;102440.00000000001;;;9.9;72.4
67345;BME280;54230;52.402;6.276;2023-11-22T21:15:00;102430.0;;;9.9;72.9
67345;BME280;54230;52.402;6.276;2023-11-22T21:20:00;102420.0;;;9.9;73.2
67345;BME280;54230;52.402;6.276;2023-11-22T21:25:00;102420.0;;;10.0;73.2
67345;BME280;54230;52.402;6.276;2023-11-22T21:30:00;102409.99999999999;;;9.3;73.7
67345;BME280;54230;52.402;6.276;2023-11-22T21:35:00;102400.0;;;9.0;74.9
67345;BME280;54230;52.402;6.276;2023-11-22T21:40:00;102400.0;;;9.0;75.7
67345;BME280;54230;52.402;6.276;2023-11-22T21:45:00;102380.0;;;8.9;75.9
67345;BME280;54230;52.402;6.276;2023-11-22T21:50:00;102380.0;;;8.9;76.4
67345;BME280;54230;52.402;6.276;2023-11-22T21:55:00;102380.0;;;8.8;77.2
67345;BME280;54230;52.402;6.276;2023-11-22T22:00:00;102370.0;;;8.7;77.7
67345;BME280;54230;52.402;6.276;2023-11-22T22:05:00;102360.0;;;8.7;78.0
67345;BME280;54230;52.402;6.276;2023-11-22T22:10:00;102360.0;;;8.7;78.5
67345;BME280;54230;52.402;6.276;2023-11-22T22:15:00;102350.0;;;8.7;78.9
67345;BME280;54230;52.402;6.276;2023-11-22T22:20:00;102350.0;;;8.8;79.3
67345;BME280;54230;52.402;6.276;2023-11-22T22:25:00;102330.0;;;8.8;79.8
67345;BME280;54230;52.402;6.276;2023-11-22T22:30:00;102330.0;;;8.9;80.4
67345;BME280;54230;52.402;6.276;2023-11-22T22:35:00;102320.0;;;8.9;80.6
67345;BME280;54230;52.402;6.276;2023-11-22T22:40:00;102310.0;;;9.0;80.8
67345;BME280;54230;52.402;6.276;2023-11-22T22:45:00;102310.0;;;9.0;80.9
67345;BME280;54230;52.402;6.276;2023-11-22T22:50:00;102310.0;;;9.1;81.0
67345;BME280;54230;52.402;6.276;2023-11-22T22:55:00;102300.0;;;9.2;81.1
67345;BME280;54230;52.402;6.276;2023-11-22T23:00:00;102300.0;;;9.2;81.4
67345;BME280;54230;52.402;6.276;2023-11-22T23:05:01;102310.0;;;9.3;81.6
67345;BME280;54230;52.402;6.276;2023-11-22T23:10:00;102310.0;;;9.3;81.8
67345;BME280;54230;52.402;6.276;2023-11-22T23:15:00;102310.0;;;9.5;82.0
67345;BME280;54230;52.402;6.276;2023-11-22T23:20:00;102300.0;;;9.4;82.0
67345;BME280;54230;52.402;6.276;2023-11-22T23:25:00;102300.0;;;9.4;82.0
67345;BME280;54230;52.402;6.276;2023-11-22T23:30:00;102280.0;;;9.5;82.0
67345;BME280;54230;52.402;6.276;2023-11-22T23:35:00;102290.0;;;9.5;82.4
67345;BME280;54230;52.402;6.276;2023-11-22T23:40:00;102290.0;;;9.6;82.5
67345;BME280;54230;52.402;6.276;2023-11-22T23:45:00;102280.0;;;9.7;82.4
67345;BME280;54230;52.402;6.276;2023-11-22T23:50:00;102280.0;;;9.7;82.4
67345;BME280;54230;52.402;6.276;2023-11-22T23:55:00;102280.0;;;9.6;82.6
